sensor_id;sensor_type;location;lat;lon;timestamp;P1;durP1;ratioP1;P2;durP2;ratioP2
63406;SDS011;49543;45.892;10.838;2022-07-15T00:01:56;6.38;;;5.20;;
63406;SDS011;49543;45.892;10.838;2022-07-15T00:04:22;5.55;;;5.05;;
63406;SDS011;49543;45.892;10.838;2022-07-15T00:06:48;5.82;;;5.25;;
63406;SDS011;49543;45.892;10.838;2022-07-15T00:09:14;5.82;;;4.80;;
63406;SDS011;49543;45.892;10.838;2022-07-15T00:11:39;6.20;;;5.53;;
63406;SDS011;49543;45.892;10.838;2022-07-15T00:14:05;5.15;;;4.63;;
63406;SDS011;49543;45.892;10.838;2022-07-15T00:16:30;5.18;;;4.75;;
63406;SDS011;49543;45.892;10.838;2022-07-15T00:18:56;5.45;;;4.93;;
63406;SDS011;49543;45.892;10.838;2022-07-15T00:21:22;5.70;;;5.20;;
63406;SDS011;49543;45.892;10.838;2022-07-15T00:23:47;5.93;;;5.43;;
63406;SDS011;49543;45.892;10.838;2022-07-15T00:26:13;5.40;;;4.90;;
63406;SDS011;49543;45.892;10.838;2022-07-15T00:28:38;5.53;;;5.03;;
63406;SDS011;49543;45.892;10.838;2022-07-15T00:31:04;6.97;;;5.13;;
63406;SDS011;49543;45.892;10.838;2022-07-15T00:33:29;7.03;;;5.32;;
63406;SDS011;49543;45.892;10.838;2022-07-15T00:35:55;6.88;;;5.72;;
63406;SDS011;49543;45.892;10.838;2022-07-15T00:38:20;5.90;;;5.38;;
63406;SDS011;49543;45.892;10.838;2022-07-15T00:40:47;5.18;;;4.68;;
63406;SDS011;49543;45.892;10.838;2022-07-15T00:43:14;5.82;;;5.20;;
63406;SDS011;49543;45.892;10.838;2022-07-15T00:45:41;6.82;;;6.22;;
63406;SDS011;49543;45.892;10.838;2022-07-15T00:48:07;5.70;;;5.20;;
63406;SDS011;49543;45.892;10.838;2022-07-15T00:50:32;6.68;;;4.90;;
63406;SDS011;49543;45.892;10.838;2022-07-15T00:53:05;5.80;;;5.10;;
63406;SDS011;49543;45.892;10.838;2022-07-15T00:55:39;5.43;;;5.03;;
63406;SDS011;49543;45.892;10.838;2022-07-15T00:58:06;6.03;;;5.40;;
63406;SDS011;49543;45.892;10.838;2022-07-15T01:00:33;6.57;;;5.97;;
63406;SDS011;49543;45.892;10.838;2022-07-15T01:03:00;6.25;;;5.65;;
63406;SDS011;49543;45.892;10.838;2022-07-15T01:05:27;6.03;;;5.43;;
63406;SDS011;49543;45.892;10.838;2022-07-15T01:07:52;7.38;;;5.40;;
63406;SDS011;49543;45.892;10.838;2022-07-15T01:10:19;5.57;;;5.05;;
63406;SDS011;49543;45.892;10.838;2022-07-15T01:12:47;6.68;;;6.05;;
63406;SDS011;49543;45.892;10.838;2022-07-15T01:15:13;6.72;;;5.75;;
63406;SDS011;49543;45.892;10.838;2022-07-15T01:17:39;7.15;;;5.85;;
63406;SDS011;49543;45.892;10.838;2022-07-15T01:20:06;5.82;;;5.30;;
63406;SDS011;49543;45.892;10.838;2022-07-15T01:22:32;5.85;;;5.35;;
63406;SDS011;49543;45.892;10.838;2022-07-15T01:24:57;7.32;;;6.05;;
63406;SDS011;49543;45.892;10.838;2022-07-15T01:27:24;5.90;;;5.40;;
63406;SDS011;49543;45.892;10.838;2022-07-15T01:29:49;7.60;;;5.72;;
63406;SDS011;49543;45.892;10.838;2022-07-15T01:32:15;6.65;;;5.95;;
63406;SDS011;49543;45.892;10.838;2022-07-15T01:34:41;7.22;;;5.93;;
63406;SDS011;49543;45.892;10.838;2022-07-15T01:37:07;5.78;;;5.28;;
63406;SDS011;49543;45.892;10.838;2022-07-15T01:39:32;5.70;;;5.25;;
63406;SDS011;49543;45.892;10.838;2022-07-15T01:41:58;5.97;;;5.38;;
63406;SDS011;49543;45.892;10.838;2022-07-15T01:44:23;6.18;;;5.68;;
63406;SDS011;49543;45.892;10.838;2022-07-15T01:46:49;5.70;;;5.20;;
63406;SDS011;49543;45.892;10.838;2022-07-15T01:49:14;5.72;;;5.03;;
63406;SDS011;49543;45.892;10.838;2022-07-15T01:51:55;6.10;;;5.50;;
63406;SDS011;49543;45.892;10.838;2022-07-15T01:54:22;6.78;;;5.85;;
63406;SDS011;49543;45.892;10.838;2022-07-15T01:56:49;6.40;;;5.72;;
63406;SDS011;49543;45.892;10.838;2022-07-15T01:59:15;6.20;;;5.70;;
63406;SDS011;49543;45.892;10.838;2022-07-15T02:01:41;7.22;;;6.20;;
63406;SDS011;49543;45.892;10.838;2022-07-15T02:04:08;6.25;;;5.75;;
63406;SDS011;49543;45.892;10.838;2022-07-15T02:06:33;6.57;;;6.07;;
63406;SDS011;49543;45.892;10.838;2022-07-15T02:08:59;6.60;;;6.00;;
63406;SDS011;49543;45.892;10.838;2022-07-15T02:11:24;6.97;;;6.35;;
63406;SDS011;49543;45.892;10.838;2022-07-15T02:13:50;6.72;;;6.13;;
63406;SDS011;49543;45.892;10.838;2022-07-15T02:16:16;6.93;;;5.88;;
63406;SDS011;49543;45.892;10.838;2022-07-15T02:18:41;6.05;;;5.50;;
63406;SDS011;49543;45.892;10.838;2022-07-15T02:21:07;6.07;;;5.47;;
63406;SDS011;49543;45.892;10.838;2022-07-15T02:23:32;6.05;;;5.38;;
63406;SDS011;49543;45.892;10.838;2022-07-15T02:25:58;6.03;;;5.53;;
63406;SDS011;49543;45.892;10.838;2022-07-15T02:28:24;5.45;;;5.05;;
63406;SDS011;49543;45.892;10.838;2022-07-15T02:30:49;6.90;;;6.03;;
63406;SDS011;49543;45.892;10.838;2022-07-15T02:33:14;6.60;;;6.10;;
63406;SDS011;49543;45.892;10.838;2022-07-15T02:35:40;6.40;;;5.88;;
63406;SDS011;49543;45.892;10.838;2022-07-15T02:38:07;6.00;;;5.50;;
63406;SDS011;49543;45.892;10.838;2022-07-15T02:40:33;5.85;;;5.32;;
63406;SDS011;49543;45.892;10.838;2022-07-15T02:42:59;7.00;;;6.45;;
63406;SDS011;49543;45.892;10.838;2022-07-15T02:45:27;6.00;;;5.43;;
63406;SDS011;49543;45.892;10.838;2022-07-15T02:47:54;6.28;;;5.68;;
63406;SDS011;49543;45.892;10.838;2022-07-15T02:50:20;7.35;;;6.20;;
63406;SDS011;49543;45.892;10.838;2022-07-15T02:52:46;7.55;;;6.68;;
63406;SDS011;49543;45.892;10.838;2022-07-15T02:55:12;6.90;;;6.30;;
63406;SDS011;49543;45.892;10.838;2022-07-15T02:57:38;6.38;;;5.78;;
63406;SDS011;49543;45.892;10.838;2022-07-15T03:00:06;8.57;;;6.45;;
63406;SDS011;49543;45.892;10.838;2022-07-15T03:02:33;7.38;;;6.65;;
63406;SDS011;49543;45.892;10.838;2022-07-15T03:04:59;7.20;;;6.50;;
63406;SDS011;49543;45.892;10.838;2022-07-15T03:07:25;6.60;;;5.90;;
63406;SDS011;49543;45.892;10.838;2022-07-15T03:09:53;7.10;;;6.40;;
63406;SDS011;49543;45.892;10.838;2022-07-15T03:12:19;7.25;;;5.97;;
63406;SDS011;49543;45.892;10.838;2022-07-15T03:14:44;6.20;;;5.60;;
63406;SDS011;49543;45.892;10.838;2022-07-15T03:17:09;6.68;;;6.07;;
63406;SDS011;49543;45.892;10.838;2022-07-15T03:19:35;7.43;;;6.63;;
63406;SDS011;49543;45.892;10.838;2022-07-15T03:22:00;6.82;;;6.22;;
63406;SDS011;49543;45.892;10.838;2022-07-15T03:24:26;6.90;;;6.30;;
63406;SDS011;49543;45.892;10.838;2022-07-15T03:26:51;6.20;;;5.60;;
63406;SDS011;49543;45.892;10.838;2022-07-15T03:29:17;6.55;;;5.75;;
63406;SDS011;49543;45.892;10.838;2022-07-15T03:31:42;6.95;;;6.25;;
63406;SDS011;49543;45.892;10.838;2022-07-15T03:34:08;7.75;;;7.00;;
63406;SDS011;49543;45.892;10.838;2022-07-15T03:36:35;6.93;;;6.28;;
63406;SDS011;49543;45.892;10.838;2022-07-15T03:39:04;7.70;;;6.97;;
63406;SDS011;49543;45.892;10.838;2022-07-15T03:41:30;6.38;;;5.88;;
63406;SDS011;49543;45.892;10.838;2022-07-15T03:43:56;6.97;;;6.28;;
63406;SDS011;49543;45.892;10.838;2022-07-15T03:46:21;6.60;;;6.00;;
63406;SDS011;49543;45.892;10.838;2022-07-15T03:48:47;7.30;;;6.70;;
63406;SDS011;49543;45.892;10.838;2022-07-15T03:51:12;6.72;;;6.10;;
63406;SDS011;49543;45.892;10.838;2022-07-15T03:53:38;6.68;;;5.97;;
63406;SDS011;49543;45.892;10.838;2022-07-15T03:56:03;6.55;;;5.88;;
63406;SDS011;49543;45.892;10.838;2022-07-15T03:58:29;6.72;;;6.13;;
63406;SDS011;49543;45.892;10.838;2022-07-15T04:00:54;7.30;;;6.53;;
63406;SDS011;49543;45.892;10.838;2022-07-15T04:03:20;6.70;;;6.20;;
63406;SDS011;49543;45.892;10.838;2022-07-15T04:05:45;7.15;;;6.55;;
63406;SDS011;49543;45.892;10.838;2022-07-15T04:08:11;7.22;;;6.63;;
63406;SDS011;49543;45.892;10.838;2022-07-15T04:10:36;6.50;;;5.90;;
63406;SDS011;49543;45.892;10.838;2022-07-15T04:13:02;7.38;;;5.72;;
63406;SDS011;49543;45.892;10.838;2022-07-15T04:15:28;6.88;;;6.28;;
63406;SDS011;49543;45.892;10.838;2022-07-15T04:17:53;6.90;;;6.30;;
63406;SDS011;49543;45.892;10.838;2022-07-15T04:20:19;7.05;;;6.35;;
63406;SDS011;49543;45.892;10.838;2022-07-15T04:22:45;7.13;;;6.00;;
63406;SDS011;49543;45.892;10.838;2022-07-15T04:25:15;7.50;;;6.80;;
63406;SDS011;49543;45.892;10.838;2022-07-15T04:27:43;7.97;;;7.15;;
63406;SDS011;49543;45.892;10.838;2022-07-15T04:30:09;7.75;;;6.63;;
63406;SDS011;49543;45.892;10.838;2022-07-15T04:32:35;7.22;;;6.63;;
63406;SDS011;49543;45.892;10.838;2022-07-15T04:35:01;7.20;;;6.60;;
63406;SDS011;49543;45.892;10.838;2022-07-15T04:37:28;7.32;;;6.28;;
63406;SDS011;49543;45.892;10.838;2022-07-15T04:39:54;7.30;;;6.70;;
63406;SDS011;49543;45.892;10.838;2022-07-15T04:42:20;8.35;;;7.40;;
63406;SDS011;49543;45.892;10.838;2022-07-15T04:44:46;7.40;;;6.80;;
63406;SDS011;49543;45.892;10.838;2022-07-15T04:47:12;7.53;;;6.82;;
63406;SDS011;49543;45.892;10.838;2022-07-15T04:49:38;7.05;;;6.38;;
63406;SDS011;49543;45.892;10.838;2022-07-15T04:52:23;7.78;;;6.50;;
63406;SDS011;49543;45.892;10.838;2022-07-15T04:54:49;7.07;;;6.47;;
63406;SDS011;49543;45.892;10.838;2022-07-15T04:57:15;7.60;;;6.97;;
63406;SDS011;49543;45.892;10.838;2022-07-15T04:59:41;9.45;;;7.03;;
63406;SDS011;49543;45.892;10.838;2022-07-15T05:02:06;7.90;;;7.10;;
63406;SDS011;49543;45.892;10.838;2022-07-15T05:04:32;7.13;;;6.40;;
63406;SDS011;49543;45.892;10.838;2022-07-15T05:06:57;7.10;;;6.40;;
63406;SDS011;49543;45.892;10.838;2022-07-15T05:09:23;8.00;;;7.18;;
63406;SDS011;49543;45.892;10.838;2022-07-15T05:11:48;7.93;;;6.25;;
63406;SDS011;49543;45.892;10.838;2022-07-15T05:14:13;6.90;;;6.30;;
63406;SDS011;49543;45.892;10.838;2022-07-15T05:16:39;8.60;;;6.65;;
63406;SDS011;49543;45.892;10.838;2022-07-15T05:19:04;7.22;;;6.45;;
63406;SDS011;49543;45.892;10.838;2022-07-15T05:21:30;7.15;;;6.50;;
63406;SDS011;49543;45.892;10.838;2022-07-15T05:23:55;7.90;;;7.20;;
63406;SDS011;49543;45.892;10.838;2022-07-15T05:26:21;7.43;;;6.70;;
63406;SDS011;49543;45.892;10.838;2022-07-15T05:28:46;9.18;;;7.38;;
63406;SDS011;49543;45.892;10.838;2022-07-15T05:31:12;7.88;;;7.18;;
63406;SDS011;49543;45.892;10.838;2022-07-15T05:33:37;7.65;;;6.93;;
63406;SDS011;49543;45.892;10.838;2022-07-15T05:36:03;6.75;;;6.15;;
63406;SDS011;49543;45.892;10.838;2022-07-15T05:38:29;7.22;;;6.53;;
63406;SDS011;49543;45.892;10.838;2022-07-15T05:40:55;7.80;;;7.10;;
63406;SDS011;49543;45.892;10.838;2022-07-15T05:43:21;7.50;;;6.88;;
63406;SDS011;49543;45.892;10.838;2022-07-15T05:45:46;7.45;;;6.75;;
63406;SDS011;49543;45.892;10.838;2022-07-15T05:48:12;7.65;;;6.95;;
63406;SDS011;49543;45.892;10.838;2022-07-15T05:50:37;7.75;;;6.93;;
63406;SDS011;49543;45.892;10.838;2022-07-15T05:53:03;7.78;;;7.03;;
63406;SDS011;49543;45.892;10.838;2022-07-15T05:55:28;7.68;;;6.88;;
63406;SDS011;49543;45.892;10.838;2022-07-15T05:57:54;7.32;;;6.63;;
63406;SDS011;49543;45.892;10.838;2022-07-15T06:00:20;6.50;;;5.90;;
63406;SDS011;49543;45.892;10.838;2022-07-15T06:02:45;7.20;;;6.25;;
63406;SDS011;49543;45.892;10.838;2022-07-15T06:05:11;7.32;;;6.72;;
63406;SDS011;49543;45.892;10.838;2022-07-15T06:07:37;6.90;;;6.20;;
63406;SDS011;49543;45.892;10.838;2022-07-15T11:48:52;5.82;;;5.32;;
